createdAt,value
2023-11-22T00:00:24.000Z,15.6
2023-11-22T00:01:40.000Z,15.4
2023-11-22T00:02:57.000Z,15.5
2023-11-22T00:04:13.000Z,15.5
2023-11-22T00:05:30.000Z,15.3
2023-11-22T00:06:47.000Z,15.5
2023-11-22T00:08:03.000Z,14.9
2023-11-22T00:09:19.000Z,15.3
2023-11-22T00:10:35.000Z,15.5
2023-11-22T00:11:52.000Z,15.5
2023-11-22T00:13:09.000Z,15.6
2023-11-22T00:14:25.000Z,15.6
2023-11-22T00:15:42.000Z,15.7
2023-11-22T00:16:58.000Z,15
2023-11-22T00:18:15.000Z,15.3
2023-11-22T00:19:31.000Z,15.5
2023-11-22T00:20:48.000Z,15
2023-11-22T00:22:04.000Z,15.2
2023-11-22T00:23:21.000Z,15.3
2023-11-22T00:24:37.000Z,15.1
2023-11-22T00:25:53.000Z,15
2023-11-22T00:27:10.000Z,15.1
2023-11-22T00:28:26.000Z,15
2023-11-22T00:29:43.000Z,14.9
2023-11-22T00:30:59.000Z,14.9
2023-11-22T00:32:16.000Z,14.8
2023-11-22T00:33:32.000Z,14.9
2023-11-22T00:34:49.000Z,15.2
2023-11-22T00:36:05.000Z,14.9
2023-11-22T00:37:22.000Z,14.9
2023-11-22T00:38:39.000Z,14.6
2023-11-22T00:39:55.000Z,15.2
2023-11-22T00:41:12.000Z,15
2023-11-22T00:42:27.000Z,15.4
2023-11-22T00:43:44.000Z,15.2
2023-11-22T00:45:00.000Z,15.2
2023-11-22T00:46:16.000Z,15.4
2023-11-22T00:47:33.000Z,15.4
2023-11-22T00:48:49.000Z,15.3
2023-11-22T00:50:06.000Z,15.4
2023-11-22T00:51:22.000Z,15.3
2023-11-22T00:52:39.000Z,15.3
2023-11-22T00:53:56.000Z,15.7
2023-11-22T00:55:12.000Z,15.6
2023-11-22T00:56:29.000Z,15.8
2023-11-22T00:57:45.000Z,16.1
2023-11-22T00:59:02.000Z,15.7
2023-11-22T01:00:18.000Z,16
2023-11-22T01:01:35.000Z,15.9
2023-11-22T01:02:51.000Z,16
2023-11-22T01:04:07.000Z,16.4
2023-11-22T01:05:24.000Z,16.1
2023-11-22T01:06:40.000Z,15.9
2023-11-22T01:07:57.000Z,15.9
2023-11-22T01:09:13.000Z,15.9
2023-11-22T01:10:30.000Z,16.4
2023-11-22T01:11:46.000Z,16.3
2023-11-22T01:13:03.000Z,16.4
2023-11-22T01:14:19.000Z,16.2
2023-11-22T01:15:36.000Z,16
2023-11-22T01:16:52.000Z,16.5
2023-11-22T01:18:09.000Z,16.2
2023-11-22T01:19:25.000Z,16.1
2023-11-22T01:20:41.000Z,16.2
2023-11-22T01:21:58.000Z,15.9
2023-11-22T01:23:14.000Z,16
2023-11-22T01:24:31.000Z,15.8
2023-11-22T01:25:47.000Z,16
2023-11-22T01:27:04.000Z,15.7
2023-11-22T01:28:21.000Z,16
2023-11-22T01:29:37.000Z,15.6
2023-11-22T01:30:54.000Z,15.5
2023-11-22T01:32:10.000Z,15.8
2023-11-22T01:33:27.000Z,15.5
2023-11-22T01:34:43.000Z,15.6
2023-11-22T01:35:59.000Z,15.3
2023-11-22T01:37:16.000Z,15.2
2023-11-22T01:38:32.000Z,15.5
2023-11-22T01:39:49.000Z,15.6
2023-11-22T01:41:05.000Z,15.7
2023-11-22T01:42:22.000Z,15.7
2023-11-22T01:43:38.000Z,15.8
2023-11-22T01:44:55.000Z,15.4
2023-11-22T01:46:11.000Z,15.7
2023-11-22T01:47:28.000Z,15.3
2023-11-22T01:48:44.000Z,15.3
2023-11-22T01:50:01.000Z,15.5
2023-11-22T01:51:17.000Z,15.4
2023-11-22T01:52:33.000Z,15.6
2023-11-22T01:53:50.000Z,15.6
2023-11-22T01:55:06.000Z,15.5
2023-11-22T01:56:23.000Z,16
2023-11-22T01:57:39.000Z,15.8
2023-11-22T01:58:56.000Z,16.1
2023-11-22T02:00:13.000Z,16.1
2023-11-22T02:01:29.000Z,16.4
2023-11-22T02:02:46.000Z,16
2023-11-22T02:04:02.000Z,16.2
2023-11-22T02:05:19.000Z,16.5
2023-11-22T02:06:35.000Z,16.2
2023-11-22T02:07:52.000Z,16.3
2023-11-22T02:09:08.000Z,16.5
2023-11-22T02:10:24.000Z,16.3
2023-11-22T02:11:41.000Z,16.6
2023-11-22T02:12:57.000Z,16.9
2023-11-22T02:14:14.000Z,17.1
2023-11-22T02:15:30.000Z,16.9
2023-11-22T02:16:47.000Z,16.9
2023-11-22T02:18:03.000Z,17
2023-11-22T02:19:20.000Z,16.8
2023-11-22T02:20:36.000Z,16.7
2023-11-22T02:21:53.000Z,16.9
2023-11-22T02:23:09.000Z,17.1
2023-11-22T02:24:26.000Z,17.2
2023-11-22T02:25:42.000Z,17.2
2023-11-22T02:26:58.000Z,17.6
2023-11-22T02:28:15.000Z,17.4
2023-11-22T02:29:31.000Z,17.7
2023-11-22T02:30:48.000Z,17.3
2023-11-22T02:32:04.000Z,17.1
2023-11-22T02:33:21.000Z,17.2
2023-11-22T02:34:38.000Z,17.2
2023-11-22T02:35:54.000Z,17.6
2023-11-22T02:37:11.000Z,17.9
2023-11-22T02:38:27.000Z,17.2
2023-11-22T02:39:44.000Z,17
2023-11-22T02:41:00.000Z,18
2023-11-22T02:42:16.000Z,17.1
2023-11-22T02:43:33.000Z,17.5
2023-11-22T02:44:49.000Z,17.4
2023-11-22T02:46:06.000Z,17.4
2023-11-22T02:47:22.000Z,17.7
2023-11-22T02:48:39.000Z,17.2
2023-11-22T02:49:55.000Z,18.1
2023-11-22T02:51:12.000Z,18
2023-11-22T02:52:28.000Z,17.5
2023-11-22T02:53:45.000Z,17.9
2023-11-22T02:55:01.000Z,17.5
2023-11-22T02:56:18.000Z,17.5
2023-11-22T02:57:34.000Z,18
2023-11-22T02:58:50.000Z,18.1
2023-11-22T03:00:07.000Z,17.6
2023-11-22T03:01:23.000Z,17.8
2023-11-22T03:02:40.000Z,17.5
2023-11-22T03:03:56.000Z,17.4
2023-11-22T03:05:13.000Z,17.3
2023-11-22T03:06:29.000Z,17.9
2023-11-22T03:07:46.000Z,17.7
2023-11-22T03:09:03.000Z,17.5
2023-11-22T03:10:19.000Z,17
2023-11-22T03:11:36.000Z,17.7
2023-11-22T03:12:52.000Z,16.9
2023-11-22T03:14:09.000Z,17.5
2023-11-22T03:15:25.000Z,17.4
2023-11-22T03:16:41.000Z,17.1
2023-11-22T03:17:58.000Z,17
2023-11-22T03:19:14.000Z,17.4
2023-11-22T03:20:31.000Z,17.5
2023-11-22T03:21:47.000Z,17.4
2023-11-22T03:23:04.000Z,17.6
2023-11-22T03:24:20.000Z,18
2023-11-22T03:25:37.000Z,17.4
2023-11-22T03:26:53.000Z,17.3
2023-11-22T03:28:10.000Z,17.5
2023-11-22T03:29:26.000Z,17.4
2023-11-22T03:30:43.000Z,17.4
2023-11-22T03:31:59.000Z,17.4
2023-11-22T03:33:15.000Z,17.5
2023-11-22T03:34:32.000Z,17.4
2023-11-22T03:35:48.000Z,17.6
2023-11-22T03:37:05.000Z,17.3
2023-11-22T03:38:21.000Z,17.7
2023-11-22T03:39:38.000Z,17.4
2023-11-22T03:40:55.000Z,17.6
2023-11-22T03:42:11.000Z,17.5
2023-11-22T03:43:28.000Z,17.6
2023-11-22T03:44:44.000Z,16.9
2023-11-22T03:46:01.000Z,17.4
2023-11-22T03:47:17.000Z,17.4
2023-11-22T03:48:33.000Z,17.3
2023-11-22T03:49:50.000Z,17.4
2023-11-22T03:51:06.000Z,17.5
2023-11-22T03:52:23.000Z,17.6
2023-11-22T03:53:39.000Z,17.3
2023-11-22T03:54:56.000Z,17
2023-11-22T03:56:12.000Z,17.2
2023-11-22T03:57:29.000Z,17.4
2023-11-22T03:58:45.000Z,17.3
2023-11-22T04:00:02.000Z,17.2
2023-11-22T04:01:18.000Z,17.5
2023-11-22T04:02:35.000Z,17.5
2023-11-22T04:03:51.000Z,17.2
2023-11-22T04:05:07.000Z,17.4
2023-11-22T04:06:24.000Z,17.2
2023-11-22T04:07:40.000Z,17.4
2023-11-22T04:08:57.000Z,17.6
2023-11-22T04:10:13.000Z,17.1
2023-11-22T04:11:30.000Z,17.4
2023-11-22T04:12:47.000Z,16.9
2023-11-22T04:14:03.000Z,17
2023-11-22T04:15:20.000Z,17
2023-11-22T04:16:36.000Z,16.9
2023-11-22T04:17:53.000Z,17.2
2023-11-22T04:19:09.000Z,16.6
2023-11-22T04:20:26.000Z,16.8
2023-11-22T04:21:42.000Z,17
2023-11-22T04:22:58.000Z,16.9
2023-11-22T04:24:15.000Z,16.6
2023-11-22T04:25:31.000Z,16.9
2023-11-22T04:26:48.000Z,16.7
2023-11-22T04:28:04.000Z,16.9
2023-11-22T04:29:21.000Z,17.1
2023-11-22T04:30:37.000Z,16.7
2023-11-22T04:31:54.000Z,16.6
2023-11-22T04:33:10.000Z,16.8
2023-11-22T04:34:27.000Z,16.5
2023-11-22T04:35:43.000Z,16.7
2023-11-22T04:37:00.000Z,16.7
2023-11-22T04:38:16.000Z,17
2023-11-22T04:39:32.000Z,16.9
2023-11-22T04:40:49.000Z,17
2023-11-22T04:42:05.000Z,17
2023-11-22T04:43:22.000Z,17.1
2023-11-22T04:44:38.000Z,16.3
2023-11-22T04:45:55.000Z,16.5
2023-11-22T04:47:12.000Z,17.2
2023-11-22T04:48:28.000Z,17
2023-11-22T04:49:45.000Z,16.8
2023-11-22T04:51:01.000Z,17.3
2023-11-22T04:52:18.000Z,17.1
2023-11-22T04:53:34.000Z,17.3
2023-11-22T04:54:50.000Z,16.9
2023-11-22T04:56:07.000Z,17.3
2023-11-22T04:57:23.000Z,17.2
2023-11-22T04:58:40.000Z,17
2023-11-22T04:59:56.000Z,17.3
2023-11-22T05:01:13.000Z,17.2
2023-11-22T05:02:29.000Z,17.3
2023-11-22T05:03:45.000Z,17.2
2023-11-22T05:05:02.000Z,17.5
2023-11-22T05:06:18.000Z,17.5
2023-11-22T05:07:35.000Z,17.3
2023-11-22T05:08:51.000Z,17.5
2023-11-22T05:10:08.000Z,17.4
2023-11-22T05:11:24.000Z,17.8
2023-11-22T05:12:41.000Z,17.4
2023-11-22T05:13:57.000Z,17
2023-11-22T05:15:14.000Z,17
2023-11-22T05:16:31.000Z,17.2
2023-11-22T05:17:47.000Z,17.2
2023-11-22T05:19:03.000Z,17
2023-11-22T05:20:19.000Z,17
2023-11-22T05:21:36.000Z,17.2
2023-11-22T05:22:52.000Z,17.7
2023-11-22T05:24:09.000Z,17.1
2023-11-22T05:25:26.000Z,16.9
2023-11-22T05:26:42.000Z,16.9
2023-11-22T05:27:59.000Z,17.2
2023-11-22T05:29:15.000Z,16.8
2023-11-22T05:30:32.000Z,17.1
2023-11-22T05:31:48.000Z,17.2
2023-11-22T05:33:05.000Z,17.3
2023-11-22T05:34:21.000Z,17.3
2023-11-22T05:35:37.000Z,17.4
2023-11-22T05:36:54.000Z,17.5
2023-11-22T05:38:10.000Z,17.5
2023-11-22T05:39:27.000Z,17.4
2023-11-22T05:40:43.000Z,17.6
2023-11-22T05:44:33.000Z,17.8
2023-11-22T05:45:49.000Z,18.3
2023-11-22T05:47:06.000Z,18.3
2023-11-22T05:48:23.000Z,18.2
2023-11-22T05:49:39.000Z,18.6
2023-11-22T05:50:56.000Z,18.2
2023-11-22T05:52:11.000Z,18.1
2023-11-22T05:53:28.000Z,18.2
2023-11-22T05:54:44.000Z,18
2023-11-22T05:56:01.000Z,18.5
2023-11-22T05:57:18.000Z,18.5
2023-11-22T05:58:34.000Z,18.7
2023-11-22T05:59:51.000Z,18.3
2023-11-22T06:01:07.000Z,18.8
2023-11-22T06:02:24.000Z,18.3
2023-11-22T06:03:40.000Z,17.5
2023-11-22T06:04:57.000Z,18.2
2023-11-22T06:06:13.000Z,18.2
2023-11-22T06:07:30.000Z,17.7
2023-11-22T06:08:46.000Z,18
2023-11-22T06:10:02.000Z,17.9
2023-11-22T06:11:19.000Z,17.9
2023-11-22T06:12:35.000Z,17.6
2023-11-22T06:13:52.000Z,17.6
2023-11-22T06:15:08.000Z,18.1
2023-11-22T06:16:25.000Z,17.9
2023-11-22T06:17:41.000Z,17.6
2023-11-22T06:18:58.000Z,17.8
2023-11-22T06:20:15.000Z,17.6
2023-11-22T06:21:31.000Z,17.5
2023-11-22T06:22:48.000Z,17.8
2023-11-22T06:24:04.000Z,17.7
2023-11-22T06:25:20.000Z,17.5
2023-11-22T06:26:36.000Z,18.3
2023-11-22T06:27:53.000Z,17.5
2023-11-22T06:29:10.000Z,17.6
2023-11-22T06:30:26.000Z,17.8
2023-11-22T06:31:43.000Z,18.1
2023-11-22T06:32:59.000Z,17.8
2023-11-22T06:34:16.000Z,17.6
2023-11-22T06:36:49.000Z,17.9
2023-11-22T06:38:05.000Z,17.7
2023-11-22T06:39:22.000Z,17.6
2023-11-22T06:40:38.000Z,17.8
2023-11-22T06:41:54.000Z,18.2
2023-11-22T06:43:11.000Z,17.8
2023-11-22T06:44:27.000Z,17.7
2023-11-22T06:45:44.000Z,18
2023-11-22T06:47:00.000Z,17.4
2023-11-22T06:48:17.000Z,18
2023-11-22T06:49:33.000Z,17.8
2023-11-22T06:50:50.000Z,18.1
2023-11-22T06:52:06.000Z,18.2
2023-11-22T06:53:23.000Z,18.3
2023-11-22T06:54:40.000Z,18.4
2023-11-22T06:55:56.000Z,18.3
2023-11-22T06:57:13.000Z,18.1
2023-11-22T06:58:28.000Z,18.6
2023-11-22T07:01:02.000Z,17.9
2023-11-22T07:02:18.000Z,18.6
2023-11-22T07:03:35.000Z,18.5
2023-11-22T07:04:51.000Z,18.2
2023-11-22T07:06:08.000Z,18.3
2023-11-22T07:07:24.000Z,18.2
2023-11-22T07:08:41.000Z,18.4
2023-11-22T07:09:57.000Z,18.4
2023-11-22T07:11:14.000Z,18.6
2023-11-22T07:12:30.000Z,18.5
2023-11-22T07:15:03.000Z,18.3
2023-11-22T07:16:19.000Z,18.6
2023-11-22T07:17:36.000Z,18.7
2023-11-22T07:18:52.000Z,19
2023-11-22T07:20:09.000Z,19.1
2023-11-22T07:21:25.000Z,19
2023-11-22T07:22:42.000Z,18.8
2023-11-22T07:23:58.000Z,18.6
2023-11-22T07:25:15.000Z,18.7
2023-11-22T07:26:32.000Z,18.9
2023-11-22T07:27:48.000Z,19.2
2023-11-22T07:29:05.000Z,19.1
2023-11-22T07:30:21.000Z,19.3
2023-11-22T07:31:38.000Z,18.6
2023-11-22T07:34:10.000Z,18.3
2023-11-22T07:35:27.000Z,18.7
2023-11-22T07:36:43.000Z,18.7
2023-11-22T07:38:00.000Z,18.6
2023-11-22T07:39:16.000Z,19.3
2023-11-22T07:40:33.000Z,19.5
2023-11-22T07:41:49.000Z,19.2
2023-11-22T07:43:06.000Z,19.1
2023-11-22T07:44:22.000Z,19.3
2023-11-22T07:45:39.000Z,19.4
2023-11-22T07:46:55.000Z,19.2
2023-11-22T07:48:12.000Z,19.3
2023-11-22T07:49:28.000Z,19
2023-11-22T07:50:44.000Z,19.3
2023-11-22T07:52:01.000Z,19.6
2023-11-22T07:53:17.000Z,19.3
2023-11-22T07:54:34.000Z,19.1
2023-11-22T07:55:50.000Z,19
2023-11-22T07:57:07.000Z,19.1
2023-11-22T07:58:24.000Z,19.5
2023-11-22T07:59:40.000Z,18.9
2023-11-22T08:00:57.000Z,19.6
2023-11-22T08:02:13.000Z,19.4
2023-11-22T08:03:30.000Z,19.3
2023-11-22T08:04:46.000Z,19.4
2023-11-22T08:06:02.000Z,19.2
2023-11-22T08:07:19.000Z,19.2
2023-11-22T08:08:35.000Z,19.1
2023-11-22T08:09:52.000Z,19.2
2023-11-22T08:12:25.000Z,19.2
2023-11-22T08:13:41.000Z,19
2023-11-22T08:14:58.000Z,19.1
2023-11-22T08:16:14.000Z,19
2023-11-22T08:17:31.000Z,19.2
2023-11-22T08:18:47.000Z,18.9
2023-11-22T08:20:04.000Z,18.7
2023-11-22T08:21:20.000Z,18.7
2023-11-22T08:22:36.000Z,18.5
2023-11-22T08:25:09.000Z,18.6
2023-11-22T08:26:26.000Z,18.6
2023-11-22T08:27:42.000Z,18.7
2023-11-22T08:28:59.000Z,18.7
2023-11-22T08:31:32.000Z,18.7
2023-11-22T08:32:48.000Z,18.6
2023-11-22T08:34:04.000Z,18.7
2023-11-22T08:35:20.000Z,18.9
2023-11-22T08:36:37.000Z,19.5
2023-11-22T08:37:53.000Z,20.5
2023-11-22T08:39:10.000Z,20
2023-11-22T08:40:26.000Z,20.1
2023-11-22T08:41:43.000Z,19.9
2023-11-22T08:43:00.000Z,20.8
2023-11-22T08:44:16.000Z,21
2023-11-22T08:45:32.000Z,20.9
2023-11-22T08:48:04.000Z,21.2
2023-11-22T08:49:21.000Z,20.8
2023-11-22T08:50:37.000Z,20.9
2023-11-22T08:51:54.000Z,20.4
2023-11-22T08:53:10.000Z,20.3
2023-11-22T08:54:27.000Z,20.1
2023-11-22T08:55:44.000Z,20.4
2023-11-22T08:57:00.000Z,20.6
2023-11-22T08:58:17.000Z,20.7
2023-11-22T08:59:33.000Z,20.1
2023-11-22T09:00:50.000Z,20
2023-11-22T09:02:06.000Z,20.4
2023-11-22T09:03:23.000Z,19.9
2023-11-22T09:04:39.000Z,20.1
2023-11-22T09:05:55.000Z,20.5
2023-11-22T09:07:12.000Z,20.5
2023-11-22T09:08:28.000Z,20.5
2023-11-22T09:09:45.000Z,20.2
2023-11-22T09:11:01.000Z,20.2
2023-11-22T09:12:18.000Z,19.8
2023-11-22T09:13:34.000Z,20.2
2023-11-22T09:16:07.000Z,20.5
2023-11-22T09:17:24.000Z,20.4
2023-11-22T09:18:40.000Z,20
2023-11-22T09:19:56.000Z,20.2
2023-11-22T09:21:13.000Z,19.9
2023-11-22T09:22:29.000Z,19.8
2023-11-22T09:23:46.000Z,20
2023-11-22T09:25:02.000Z,20
2023-11-22T09:26:19.000Z,20.2
2023-11-22T09:27:36.000Z,20.6
2023-11-22T09:28:52.000Z,20.3
2023-11-22T09:30:09.000Z,20.3
2023-11-22T09:31:25.000Z,20.4
2023-11-22T09:33:58.000Z,19.1
2023-11-22T09:35:14.000Z,20.5
2023-11-22T09:36:31.000Z,20.4
2023-11-22T09:37:47.000Z,20.7
2023-11-22T09:39:04.000Z,20
2023-11-22T09:40:20.000Z,20
2023-11-22T09:41:37.000Z,20.1
2023-11-22T09:42:53.000Z,20.3
2023-11-22T09:44:10.000Z,20.3
2023-11-22T09:45:26.000Z,20.3
2023-11-22T09:46:43.000Z,20.3
2023-11-22T09:47:59.000Z,20.6
2023-11-22T09:49:16.000Z,20.4
2023-11-22T09:50:33.000Z,20.6
2023-11-22T09:51:48.000Z,20.4
2023-11-22T09:53:05.000Z,21
2023-11-22T09:54:21.000Z,20.3
2023-11-22T09:55:38.000Z,20.4
2023-11-22T09:56:54.000Z,20.1
2023-11-22T09:58:11.000Z,19.8
2023-11-22T09:59:28.000Z,20
2023-11-22T10:00:44.000Z,19.8
2023-11-22T10:02:01.000Z,20.6
2023-11-22T10:03:17.000Z,20.6
2023-11-22T10:04:34.000Z,20.7
2023-11-22T10:05:50.000Z,20.6
2023-11-22T10:07:07.000Z,20.1
2023-11-22T10:08:23.000Z,19.9
2023-11-22T10:09:39.000Z,20.6
2023-11-22T10:10:56.000Z,19.9
2023-11-22T10:12:12.000Z,20.2
2023-11-22T10:13:29.000Z,20.4
2023-11-22T10:14:45.000Z,20
2023-11-22T10:16:02.000Z,20.6
2023-11-22T10:17:18.000Z,20.7
2023-11-22T10:19:51.000Z,20.1
2023-11-22T10:21:08.000Z,20
2023-11-22T10:23:41.000Z,20.4
2023-11-22T10:24:57.000Z,20.2
2023-11-22T10:26:13.000Z,20.2
2023-11-22T10:27:30.000Z,20.9
2023-11-22T10:30:03.000Z,20.2
2023-11-22T10:32:35.000Z,20.6
2023-11-22T10:35:08.000Z,20.6
2023-11-22T10:36:24.000Z,20.4
2023-11-22T10:37:40.000Z,20.3
2023-11-22T10:38:56.000Z,19.9
2023-11-22T10:40:13.000Z,20.2
2023-11-22T10:41:29.000Z,20.2
2023-11-22T10:44:02.000Z,20.5
2023-11-22T10:45:19.000Z,20.5
2023-11-22T10:46:35.000Z,20.5
2023-11-22T10:47:52.000Z,20.4
2023-11-22T10:49:08.000Z,20.3
2023-11-22T10:51:41.000Z,20.2
2023-11-22T10:52:57.000Z,20.3
2023-11-22T10:55:30.000Z,20.2
2023-11-22T10:56:46.000Z,20.2
2023-11-22T10:59:19.000Z,19.9
2023-11-22T11:00:36.000Z,20
2023-11-22T11:01:52.000Z,20.1
2023-11-22T11:03:09.000Z,19.8
2023-11-22T11:04:25.000Z,20.3
2023-11-22T11:09:32.000Z,20.2
2023-11-22T11:10:47.000Z,20.1
2023-11-22T11:12:04.000Z,20.1
2023-11-22T11:13:20.000Z,20.1
2023-11-22T11:14:37.000Z,20.2
2023-11-22T11:15:54.000Z,20
2023-11-22T11:17:10.000Z,19.9
2023-11-22T11:18:27.000Z,20.6
2023-11-22T11:21:00.000Z,20.5
2023-11-22T11:22:16.000Z,20.6
2023-11-22T11:23:33.000Z,20.5
2023-11-22T11:24:49.000Z,20.3
2023-11-22T11:26:06.000Z,20.4
2023-11-22T11:27:22.000Z,20.2
2023-11-22T11:28:38.000Z,20.5
2023-11-22T11:29:55.000Z,20.1
2023-11-22T11:31:11.000Z,20.2
2023-11-22T11:32:28.000Z,19.8
2023-11-22T11:33:44.000Z,20.4
2023-11-22T11:36:17.000Z,20.1
2023-11-22T11:37:34.000Z,20
2023-11-22T11:38:51.000Z,19.7
2023-11-22T11:40:07.000Z,20.7
2023-11-22T11:41:24.000Z,20
2023-11-22T11:42:40.000Z,20.2
2023-11-22T11:43:56.000Z,20.2
2023-11-22T11:45:12.000Z,20.6
2023-11-22T11:46:29.000Z,20.5
2023-11-22T11:47:45.000Z,20.2
2023-11-22T11:49:01.000Z,20.1
2023-11-22T11:50:17.000Z,20.1
2023-11-22T11:51:34.000Z,20.5
2023-11-22T11:52:50.000Z,20.1
2023-11-22T11:54:07.000Z,20.7
2023-11-22T11:55:23.000Z,20.5
2023-11-22T11:56:40.000Z,20.9
2023-11-22T11:57:56.000Z,20.3
2023-11-22T12:00:30.000Z,20.7
2023-11-22T12:01:46.000Z,20.7
2023-11-22T12:03:03.000Z,20.9
2023-11-22T12:04:19.000Z,20.9
2023-11-22T12:05:35.000Z,21.2
2023-11-22T12:06:52.000Z,20.8
2023-11-22T12:08:08.000Z,20.8
2023-11-22T12:09:25.000Z,21
2023-11-22T12:11:58.000Z,21.4
2023-11-22T12:13:14.000Z,21
2023-11-22T12:14:29.000Z,21.7
2023-11-22T12:15:46.000Z,21.1
2023-11-22T12:17:02.000Z,21.6
2023-11-22T12:18:19.000Z,21.8
2023-11-22T12:19:36.000Z,20.8
2023-11-22T12:20:52.000Z,20.8
2023-11-22T12:22:09.000Z,20.9
2023-11-22T12:23:25.000Z,20.8
2023-11-22T12:24:42.000Z,21.3
2023-11-22T12:25:58.000Z,21.2
2023-11-22T12:27:14.000Z,20.4
2023-11-22T12:28:30.000Z,20.2
2023-11-22T12:29:46.000Z,20.2
2023-11-22T12:31:03.000Z,20.2
2023-11-22T12:32:20.000Z,20.6
2023-11-22T12:33:36.000Z,20.1
2023-11-22T12:34:53.000Z,20.6
2023-11-22T12:36:09.000Z,20.2
2023-11-22T12:37:26.000Z,20.6
2023-11-22T12:38:42.000Z,20.6
2023-11-22T12:39:57.000Z,20.3
2023-11-22T12:41:14.000Z,20.8
2023-11-22T12:42:30.000Z,20.4
2023-11-22T12:43:47.000Z,20.7
2023-11-22T12:45:04.000Z,20.4
2023-11-22T12:46:20.000Z,20.6
2023-11-22T12:47:37.000Z,20.7
2023-11-22T12:48:53.000Z,20.8
2023-11-22T12:50:10.000Z,20.7
2023-11-22T12:51:26.000Z,20.7
2023-11-22T12:52:43.000Z,20.9
2023-11-22T12:53:59.000Z,20.7
2023-11-22T12:55:16.000Z,21.1
2023-11-22T12:56:32.000Z,20.8
2023-11-22T12:57:48.000Z,20.9
2023-11-22T12:59:05.000Z,21.1
2023-11-22T13:00:21.000Z,21.1
2023-11-22T13:01:38.000Z,20.6
2023-11-22T13:02:54.000Z,21.7
2023-11-22T13:04:11.000Z,22.2
2023-11-22T13:06:44.000Z,21.3
2023-11-22T13:08:00.000Z,20.7
2023-11-22T13:09:17.000Z,21.1
2023-11-22T13:10:34.000Z,20.9
2023-11-22T13:11:50.000Z,21.6
2023-11-22T13:13:06.000Z,21.4
2023-11-22T13:14:22.000Z,21.4
2023-11-22T13:16:55.000Z,21.2
2023-11-22T13:18:12.000Z,22.3
2023-11-22T13:19:29.000Z,22.1
2023-11-22T13:20:45.000Z,21.6
2023-11-22T13:22:02.000Z,21.9
2023-11-22T13:24:35.000Z,21.5
2023-11-22T13:25:51.000Z,21.7
2023-11-22T13:27:06.000Z,21.5
2023-11-22T13:28:23.000Z,21.6
2023-11-22T13:29:39.000Z,21.4
2023-11-22T13:30:56.000Z,21.6
2023-11-22T13:32:13.000Z,21.4
2023-11-22T13:33:29.000Z,21.5
2023-11-22T13:34:45.000Z,21.8
2023-11-22T13:36:01.000Z,22.6
2023-11-22T13:37:18.000Z,22.2
2023-11-22T13:38:34.000Z,21.8
2023-11-22T13:39:50.000Z,21.5
2023-11-22T13:41:06.000Z,21.7
2023-11-22T13:42:23.000Z,21.7
2023-11-22T13:43:39.000Z,21.7
2023-11-22T13:44:56.000Z,21.3
2023-11-22T13:46:12.000Z,21.3
2023-11-22T13:47:29.000Z,21.6
2023-11-22T13:48:45.000Z,21.8
2023-11-22T13:51:19.000Z,22.7
2023-11-22T13:52:35.000Z,21.5
2023-11-22T13:53:52.000Z,21.7
2023-11-22T13:55:08.000Z,21.6
2023-11-22T13:56:24.000Z,21.7
2023-11-22T13:57:40.000Z,21.5
2023-11-22T13:58:57.000Z,21.6
2023-11-22T14:00:14.000Z,21.5
2023-11-22T14:01:30.000Z,21.7
2023-11-22T14:02:47.000Z,22.1
2023-11-22T14:04:03.000Z,21.2
2023-11-22T14:05:20.000Z,21.2
2023-11-22T14:06:36.000Z,21.1
2023-11-22T14:07:53.000Z,21.4
2023-11-22T14:09:09.000Z,21.4
2023-11-22T14:10:26.000Z,21.6
2023-11-22T14:11:42.000Z,21.4
2023-11-22T14:12:58.000Z,21.4
2023-11-22T14:14:15.000Z,21.5
2023-11-22T14:15:31.000Z,21.7
2023-11-22T14:16:48.000Z,22.5
2023-11-22T14:18:04.000Z,22.1
2023-11-22T14:19:21.000Z,22.4
2023-11-22T14:20:37.000Z,22.7
2023-11-22T14:21:54.000Z,22.7
2023-11-22T14:23:10.000Z,22.4
2023-11-22T14:24:27.000Z,22.4
2023-11-22T14:25:44.000Z,22.4
2023-11-22T14:27:00.000Z,22.7
2023-11-22T14:28:17.000Z,21.9
2023-11-22T14:29:32.000Z,22.3
2023-11-22T14:30:49.000Z,22.2
2023-11-22T14:32:05.000Z,25.3
2023-11-22T14:33:22.000Z,22.4
2023-11-22T14:34:39.000Z,22.1
2023-11-22T14:35:55.000Z,22.9
2023-11-22T14:37:12.000Z,23.1
2023-11-22T14:38:28.000Z,23
2023-11-22T14:39:45.000Z,23.2
2023-11-22T14:41:01.000Z,23.1
2023-11-22T14:42:18.000Z,23.2
2023-11-22T14:43:34.000Z,22.9
2023-11-22T14:44:51.000Z,23.1
2023-11-22T14:46:07.000Z,22.7
2023-11-22T14:47:23.000Z,22.4
2023-11-22T14:48:40.000Z,23.3
2023-11-22T14:49:56.000Z,23.1
2023-11-22T14:51:13.000Z,23.1
2023-11-22T14:52:29.000Z,22.6
2023-11-22T14:53:46.000Z,22.7
2023-11-22T14:55:02.000Z,22.9
2023-11-22T14:56:19.000Z,22.6
2023-11-22T14:57:35.000Z,22.5
2023-11-22T14:58:52.000Z,22.1
2023-11-22T15:00:09.000Z,22.7
2023-11-22T15:01:25.000Z,22.3
2023-11-22T15:02:41.000Z,24
2023-11-22T15:03:57.000Z,23.4
2023-11-22T15:05:14.000Z,22.7
2023-11-22T15:06:31.000Z,22.4
2023-11-22T15:07:47.000Z,23.1
2023-11-22T15:09:04.000Z,23
2023-11-22T15:10:20.000Z,22.9
2023-11-22T15:12:53.000Z,23.5
2023-11-22T15:14:10.000Z,23.1
2023-11-22T15:15:26.000Z,23.4
2023-11-22T15:16:43.000Z,23.6
2023-11-22T15:17:59.000Z,23.4
2023-11-22T15:19:15.000Z,22.9
2023-11-22T15:20:32.000Z,23.4
2023-11-22T15:21:48.000Z,24
2023-11-22T15:23:05.000Z,23
2023-11-22T15:24:21.000Z,23.3
2023-11-22T15:25:38.000Z,22.9
2023-11-22T15:26:54.000Z,22.7
2023-11-22T15:28:11.391Z,22.7
2023-11-22T15:29:27.000Z,22.8
2023-11-22T15:30:44.000Z,22.7
2023-11-22T15:32:01.000Z,22.2
2023-11-22T15:33:17.000Z,22.5
2023-11-22T15:34:34.000Z,22.9
2023-11-22T15:35:49.000Z,22.7
2023-11-22T15:37:06.000Z,23
2023-11-22T15:38:22.000Z,22.8
2023-11-22T15:39:39.000Z,22.5
2023-11-22T15:40:56.000Z,22.3
2023-11-22T15:42:12.000Z,22.9
2023-11-22T15:43:29.000Z,23.2
2023-11-22T15:44:45.000Z,22.4
2023-11-22T15:46:02.000Z,23
2023-11-22T15:47:18.000Z,23.4
2023-11-22T15:48:35.000Z,22.9
2023-11-22T15:49:51.000Z,23.4
2023-11-22T15:51:08.000Z,23.6
2023-11-22T15:52:24.000Z,24.3
2023-11-22T15:53:40.000Z,23.9
2023-11-22T15:54:57.000Z,24.1
2023-11-22T15:56:13.000Z,23.9
2023-11-22T15:57:30.000Z,23.7
2023-11-22T15:58:46.000Z,22.8
2023-11-22T16:00:03.000Z,22.9
2023-11-22T16:01:19.000Z,23
2023-11-22T16:02:36.000Z,22.1
2023-11-22T16:03:52.000Z,22.9
2023-11-22T16:05:09.000Z,22.5
2023-11-22T16:06:26.000Z,22.9
2023-11-22T16:07:42.000Z,22.8
2023-11-22T16:08:59.000Z,22.7
2023-11-22T16:10:14.000Z,22.7
2023-11-22T16:11:31.000Z,23
2023-11-22T16:12:47.000Z,23.1
2023-11-22T16:14:04.000Z,22.9
2023-11-22T16:15:21.000Z,22.4
2023-11-22T16:16:37.000Z,22.5
2023-11-22T16:17:54.000Z,22.1
2023-11-22T16:19:10.000Z,24.5
2023-11-22T16:20:27.000Z,24.9
2023-11-22T16:21:43.000Z,27.3
2023-11-22T16:23:00.000Z,25.4
2023-11-22T16:24:16.000Z,25.1
2023-11-22T16:25:33.000Z,24.9
2023-11-22T16:26:49.000Z,24.7
2023-11-22T16:28:05.000Z,25.1
2023-11-22T16:29:22.000Z,24
2023-11-22T16:30:38.000Z,23.7
2023-11-22T16:31:55.000Z,24.8
2023-11-22T16:33:11.000Z,24.9
2023-11-22T16:34:28.000Z,24.9
2023-11-22T16:35:44.000Z,24.2
2023-11-22T16:37:01.000Z,23.8
2023-11-22T16:38:17.000Z,23.1
2023-11-22T16:39:34.000Z,23.6
2023-11-22T16:40:51.000Z,24.1
2023-11-22T16:42:07.000Z,24.5
2023-11-22T16:43:24.000Z,25
2023-11-22T16:44:39.000Z,24.2
2023-11-22T16:45:56.000Z,24.9
2023-11-22T16:47:13.000Z,24.8
2023-11-22T16:49:46.000Z,26.2
2023-11-22T16:51:02.000Z,28
2023-11-22T16:52:19.000Z,25
2023-11-22T16:53:35.000Z,25.7
2023-11-22T16:54:52.000Z,25.2
2023-11-22T16:56:08.000Z,24
2023-11-22T16:57:25.000Z,23.6
2023-11-22T16:58:41.000Z,24.4
2023-11-22T16:59:58.000Z,26.2
2023-11-22T17:01:14.000Z,25.3
2023-11-22T17:02:30.000Z,39
2023-11-22T17:03:47.000Z,25.6
2023-11-22T17:05:03.000Z,25.8
2023-11-22T17:06:20.000Z,25.9
2023-11-22T17:07:36.000Z,26.1
2023-11-22T17:08:53.000Z,25.5
2023-11-22T17:10:09.000Z,28.3
2023-11-22T17:11:26.000Z,26
2023-11-22T17:12:43.000Z,30.8
2023-11-22T17:13:59.000Z,31.6
2023-11-22T17:15:16.000Z,27.1
2023-11-22T17:16:32.000Z,25.6
2023-11-22T17:17:48.000Z,25.7
2023-11-22T17:19:04.000Z,32.3
2023-11-22T17:20:21.000Z,38.8
2023-11-22T17:21:38.000Z,29.4
2023-11-22T17:22:54.000Z,28.2
2023-11-22T17:24:11.000Z,27.7
2023-11-22T17:25:27.000Z,26.8
2023-11-22T17:26:44.000Z,26.5
2023-11-22T17:28:00.000Z,27.2
2023-11-22T17:29:17.000Z,27
2023-11-22T17:30:33.000Z,28.1
2023-11-22T17:31:50.000Z,27.9
2023-11-22T17:33:06.000Z,30.4
2023-11-22T17:34:22.000Z,29
2023-11-22T17:35:39.000Z,29.2
2023-11-22T17:36:55.000Z,27.5
2023-11-22T17:38:12.000Z,27.5
2023-11-22T17:39:28.000Z,27.3
2023-11-22T17:40:45.000Z,26.5
2023-11-22T17:42:01.000Z,26.6
2023-11-22T17:43:18.000Z,25.8
2023-11-22T17:44:34.000Z,25.2
2023-11-22T17:45:51.000Z,25
2023-11-22T17:47:08.000Z,25.3